createdAt,value
2018-01-28T00:01:15.975Z,24.27
2018-01-28T00:03:43.845Z,28.63
2018-01-28T00:06:11.766Z,30.80
2018-01-28T00:08:39.615Z,26.87
2018-01-28T00:11:07.466Z,28.53
2018-01-28T00:13:35.420Z,28.23
2018-01-28T00:16:04.172Z,28.87
2018-01-28T00:18:32.082Z,29.90
2018-01-28T00:21:00.259Z,29.43
2018-01-28T00:23:28.109Z,27.97
2018-01-28T00:25:55.990Z,28.67
2018-01-28T00:28:23.903Z,26.33
2018-01-28T00:30:51.766Z,24.37
2018-01-28T00:33:19.631Z,24.50
2018-01-28T00:35:47.530Z,22.33
2018-01-28T00:38:15.378Z,22.87
2018-01-28T00:40:43.252Z,23.53
2018-01-28T00:43:12.031Z,23.43
2018-01-28T00:45:39.875Z,22.63
2018-01-28T00:48:07.745Z,22.97
2018-01-28T00:50:35.678Z,23.17
2018-01-28T00:53:03.535Z,22.47
2018-01-28T00:55:31.389Z,21.53
2018-01-28T00:57:59.301Z,20.60
2018-01-28T01:00:27.169Z,20.93
2018-01-28T01:02:55.047Z,20.83
2018-01-28T01:05:22.955Z,20.73
2018-01-28T01:07:50.801Z,22.13
2018-01-28T01:10:18.674Z,23.10
2018-01-28T01:12:46.878Z,23.53
2018-01-28T01:15:14.728Z,22.17
2018-01-28T01:17:42.738Z,23.13
2018-01-28T01:20:10.655Z,23.03
2018-01-28T01:22:38.516Z,21.50
2018-01-28T01:25:06.388Z,22.60
2018-01-28T01:27:34.334Z,21.97
2018-01-28T01:30:02.226Z,24.53
2018-01-28T01:32:30.080Z,25.10
2018-01-28T01:34:57.984Z,24.63
2018-01-28T01:37:25.870Z,26.77
2018-01-28T01:39:53.758Z,25.50
2018-01-28T01:42:21.676Z,25.67
2018-01-28T01:44:49.534Z,24.77
2018-01-28T01:47:17.391Z,25.20
2018-01-28T01:49:45.329Z,27.67
2018-01-28T01:52:13.171Z,22.80
2018-01-28T01:54:41.025Z,24.30
2018-01-28T01:57:08.907Z,21.23
2018-01-28T01:59:36.869Z,19.00
2018-01-28T02:02:04.739Z,19.33
2018-01-28T02:04:32.876Z,17.97
2018-01-28T02:07:00.727Z,18.87
2018-01-28T02:09:28.576Z,18.17
2018-01-28T02:11:56.515Z,18.87
2018-01-28T02:14:24.379Z,17.13
2018-01-28T02:16:52.296Z,17.13
2018-01-28T02:19:20.326Z,17.33
2018-01-28T02:21:48.184Z,17.47
2018-01-28T02:24:16.038Z,16.87
2018-01-28T02:26:43.952Z,17.63
2018-01-28T02:29:11.806Z,16.20
2018-01-28T02:31:39.637Z,15.80
2018-01-28T02:34:07.546Z,16.37
2018-01-28T02:36:35.423Z,15.90
2018-01-28T02:39:03.340Z,16.77
2018-01-28T02:41:31.643Z,17.53
2018-01-28T02:43:59.503Z,16.73
2018-01-28T02:46:27.387Z,16.00
2018-01-28T02:48:55.290Z,15.90
2018-01-28T02:51:23.149Z,16.90
2018-01-28T02:53:51.022Z,17.90
2018-01-28T02:56:18.962Z,17.63
2018-01-28T02:58:46.811Z,18.60
2018-01-28T03:01:14.690Z,17.30
2018-01-28T03:03:42.671Z,18.07
2018-01-28T03:06:10.566Z,17.60
2018-01-28T03:08:38.438Z,17.57
2018-01-28T03:11:06.364Z,17.53
2018-01-28T03:13:34.219Z,19.47
2018-01-28T03:16:02.099Z,20.13
2018-01-28T03:18:30.275Z,22.17
2018-01-28T03:20:58.650Z,22.77
2018-01-28T03:23:27.350Z,26.77
2018-01-28T03:25:55.314Z,25.90
2018-01-28T03:28:23.858Z,23.90
2018-01-28T03:30:52.190Z,24.33
2018-01-28T03:33:20.187Z,25.63
2018-01-28T03:35:48.068Z,24.80
2018-01-28T03:38:15.990Z,24.90
2018-01-28T03:40:43.909Z,26.23
2018-01-28T03:43:11.781Z,25.10
2018-01-28T03:45:39.647Z,24.10
2018-01-28T03:48:07.591Z,24.60
2018-01-28T03:50:35.454Z,23.83
2018-01-28T03:53:03.322Z,23.23
2018-01-28T03:55:31.526Z,23.60
2018-01-28T03:57:59.396Z,23.53
2018-01-28T04:00:27.254Z,23.97
2018-01-28T04:02:55.191Z,23.77
2018-01-28T04:05:23.080Z,25.13
2018-01-28T04:07:50.956Z,25.40
2018-01-28T04:10:18.851Z,27.57
2018-01-28T04:12:46.746Z,26.83
2018-01-28T04:15:14.697Z,26.40
2018-01-28T04:17:42.635Z,28.80
2018-01-28T04:20:10.506Z,27.60
2018-01-28T04:22:38.690Z,28.30
2018-01-28T04:25:06.642Z,29.93
2018-01-28T04:27:34.523Z,28.47
2018-01-28T04:30:02.387Z,29.00
2018-01-28T04:32:30.295Z,28.33
2018-01-28T04:34:58.172Z,27.80
2018-01-28T04:37:26.049Z,27.50
2018-01-28T04:39:54.364Z,28.00
2018-01-28T04:42:22.295Z,29.67
2018-01-28T04:44:50.151Z,28.97
2018-01-28T04:47:18.084Z,28.07
2018-01-28T04:49:45.995Z,28.70
2018-01-28T04:52:13.867Z,28.00
2018-01-28T04:54:41.814Z,28.37
2018-01-28T04:57:09.706Z,26.90
2018-01-28T04:59:38.390Z,27.53
2018-01-28T05:02:07.329Z,26.10
2018-01-28T05:04:35.248Z,25.27
2018-01-28T05:07:03.168Z,25.43
2018-01-28T05:09:31.140Z,26.50
2018-01-28T05:11:59.042Z,25.67
2018-01-28T05:14:26.923Z,26.23
2018-01-28T05:16:55.039Z,28.43
2018-01-28T05:19:22.958Z,27.57
2018-01-28T05:21:50.927Z,28.87
2018-01-28T05:24:21.855Z,28.30
2018-01-28T05:26:49.779Z,28.53
2018-01-28T05:29:17.635Z,29.50
2018-01-28T05:31:45.567Z,30.00
2018-01-28T05:34:13.418Z,29.93
2018-01-28T05:36:41.282Z,29.93
2018-01-28T05:39:09.212Z,30.07
2018-01-28T05:41:37.067Z,30.60
2018-01-28T05:44:04.938Z,29.23
2018-01-28T05:46:32.882Z,28.80
2018-01-28T05:49:00.737Z,29.83
2018-01-28T05:51:28.631Z,28.40
2018-01-28T05:53:56.554Z,28.20
2018-01-28T05:56:24.425Z,28.57
2018-01-28T05:58:52.278Z,26.57
2018-01-28T06:01:20.181Z,26.10
2018-01-28T06:03:48.046Z,25.37
2018-01-28T06:06:15.904Z,24.30
2018-01-28T06:08:43.887Z,24.17
2018-01-28T06:11:11.775Z,23.50
2018-01-28T06:13:39.698Z,24.20
2018-01-28T06:16:07.587Z,24.40
2018-01-28T06:18:35.503Z,25.43
2018-01-28T06:21:03.378Z,25.47
2018-01-28T06:23:31.476Z,25.40
2018-01-28T06:25:59.459Z,25.40
2018-01-28T06:28:27.336Z,25.90
2018-01-28T06:30:55.230Z,25.23
2018-01-28T06:33:23.150Z,25.80
2018-01-28T06:35:51.024Z,25.17
2018-01-28T06:38:19.914Z,24.10
2018-01-28T06:40:47.766Z,26.73
2018-01-28T06:43:15.643Z,29.97
2018-01-28T06:45:43.574Z,30.07
2018-01-28T06:48:11.430Z,35.97
2018-01-28T06:50:39.292Z,30.83
2018-01-28T06:53:07.182Z,29.50
2018-01-28T06:55:35.032Z,29.80
2018-01-28T06:58:02.876Z,29.90
2018-01-28T07:00:31.012Z,30.57
2018-01-28T07:02:58.872Z,29.67
2018-01-28T07:05:26.743Z,29.80
2018-01-28T07:07:54.671Z,29.57
2018-01-28T07:10:22.521Z,30.20
2018-01-28T07:12:50.553Z,29.10
2018-01-28T07:15:18.494Z,31.73
2018-01-28T07:17:46.350Z,30.40
2018-01-28T07:20:14.291Z,29.53
2018-01-28T07:22:42.421Z,32.07
2018-01-28T07:25:10.267Z,31.57
2018-01-28T07:27:38.237Z,31.50
2018-01-28T07:30:06.551Z,29.03
2018-01-28T07:32:34.397Z,28.27
2018-01-28T07:35:02.601Z,34.80
2018-01-28T07:37:30.540Z,30.97
2018-01-28T07:39:58.379Z,30.97
2018-01-28T07:42:26.239Z,30.57
2018-01-28T07:44:54.366Z,26.43
2018-01-28T07:47:22.227Z,25.83
2018-01-28T07:49:50.087Z,25.83
2018-01-28T07:52:18.285Z,26.20
2018-01-28T07:54:46.191Z,25.13
2018-01-28T07:57:14.107Z,25.33
2018-01-28T07:59:42.049Z,25.23
2018-01-28T08:02:09.979Z,25.60
2018-01-28T08:04:37.894Z,28.83
2018-01-28T08:07:05.854Z,26.70
2018-01-28T08:09:33.786Z,27.77
2018-01-28T08:12:07.132Z,25.90
2018-01-28T08:14:36.928Z,25.90
2018-01-28T08:17:05.668Z,27.10
2018-01-28T08:19:34.093Z,25.33
2018-01-28T08:22:02.006Z,26.17
2018-01-28T08:24:29.923Z,24.87
2018-01-28T08:26:58.702Z,24.77
2018-01-28T08:29:28.299Z,27.53
2018-01-28T08:31:56.144Z,27.40
2018-01-28T08:34:24.091Z,27.60
2018-01-28T08:36:51.975Z,30.77
2018-01-28T08:39:20.360Z,30.00
2018-01-28T08:41:48.275Z,29.13
2018-01-28T08:44:16.998Z,29.27
2018-01-28T08:46:44.906Z,31.57
2018-01-28T08:49:12.815Z,39.17
2018-01-28T08:51:40.655Z,39.33
2018-01-28T08:54:08.570Z,34.10
2018-01-28T08:56:36.479Z,30.93
2018-01-28T08:59:04.325Z,27.00
2018-01-28T09:01:32.166Z,25.80
2018-01-28T09:04:00.053Z,25.47
2018-01-28T09:06:28.032Z,23.13
2018-01-28T09:08:55.933Z,22.67
2018-01-28T09:11:23.839Z,21.60
2018-01-28T09:13:51.725Z,20.47
2018-01-28T09:16:19.604Z,20.10
2018-01-28T09:18:47.535Z,23.73
2018-01-28T09:21:15.447Z,19.57
2018-01-28T09:23:43.315Z,20.10
2018-01-28T09:26:11.487Z,19.90
2018-01-28T09:28:39.352Z,19.93
2018-01-28T09:31:07.773Z,18.13
2018-01-28T09:33:35.755Z,19.87
2018-01-28T09:36:03.623Z,21.17
2018-01-28T09:38:31.522Z,20.07
2018-01-28T09:40:59.518Z,18.63
2018-01-28T09:43:27.383Z,18.80
2018-01-28T09:45:55.306Z,18.77
2018-01-28T09:48:23.219Z,19.27
2018-01-28T09:50:51.066Z,19.70
2018-01-28T09:53:18.934Z,20.33
2018-01-28T09:55:46.857Z,20.83
2018-01-28T09:58:14.711Z,21.57
2018-01-28T10:00:42.835Z,22.77
2018-01-28T10:03:11.731Z,23.07
2018-01-28T10:05:39.598Z,22.57
2018-01-28T10:08:07.438Z,24.83
2018-01-28T10:10:35.399Z,24.63
2018-01-28T10:13:03.726Z,27.90
2018-01-28T10:15:31.588Z,25.07
2018-01-28T10:17:59.500Z,31.10
2018-01-28T10:20:27.371Z,23.77
2018-01-28T10:22:55.252Z,24.07
2018-01-28T10:25:23.166Z,25.40
2018-01-28T10:27:51.053Z,24.13
2018-01-28T10:30:18.903Z,24.87
2018-01-28T10:32:46.908Z,26.37
2018-01-28T10:35:14.767Z,25.10
2018-01-28T10:37:42.622Z,26.07
2018-01-28T10:40:10.574Z,24.63
2018-01-28T10:42:38.479Z,24.90
2018-01-28T10:45:06.430Z,27.80
2018-01-28T10:47:34.671Z,24.37
2018-01-28T10:50:02.522Z,28.73
2018-01-28T10:52:30.405Z,22.73
2018-01-28T10:54:58.322Z,20.90
2018-01-28T10:57:26.186Z,22.70
2018-01-28T10:59:54.055Z,22.17
2018-01-28T11:02:22.866Z,25.37
2018-01-28T11:04:50.734Z,26.50
2018-01-28T11:07:18.607Z,23.90
2018-01-28T11:09:46.538Z,23.60
2018-01-28T11:12:14.403Z,22.53
2018-01-28T11:14:42.266Z,24.73
2018-01-28T11:17:10.201Z,24.07
2018-01-28T11:19:38.049Z,51.63
2018-01-28T11:22:05.971Z,24.13
2018-01-28T11:24:34.163Z,22.60
2018-01-28T11:27:02.034Z,25.23
2018-01-28T11:29:29.892Z,27.40
2018-01-28T11:31:57.815Z,26.23
2018-01-28T11:34:25.804Z,24.67
2018-01-28T11:36:53.674Z,26.37
2018-01-28T11:39:21.592Z,25.90
2018-01-28T11:41:49.434Z,25.63
2018-01-28T11:44:17.299Z,27.60
2018-01-28T11:46:45.276Z,28.33
2018-01-28T11:49:13.155Z,29.27
2018-01-28T11:51:41.033Z,29.70
2018-01-28T11:54:08.964Z,31.13
2018-01-28T11:56:36.944Z,29.83
2018-01-28T11:59:04.827Z,29.27
2018-01-28T12:01:32.999Z,28.97
2018-01-28T12:04:00.903Z,31.03
2018-01-28T12:06:28.769Z,30.13
2018-01-28T12:08:56.685Z,29.00
2018-01-28T12:11:24.580Z,28.63
2018-01-28T12:13:52.457Z,30.40
2018-01-28T12:16:20.360Z,29.97
2018-01-28T12:18:48.239Z,30.63
2018-01-28T12:21:16.101Z,30.07
2018-01-28T12:23:44.034Z,28.37
2018-01-28T12:26:15.167Z,29.47
2018-01-28T12:31:29.837Z,28.97
2018-01-28T12:33:57.922Z,29.33
2018-01-28T12:36:34.655Z,29.83
2018-01-28T12:39:20.084Z,42.60
2018-01-28T12:41:52.772Z,36.07
2018-01-28T12:47:05.363Z,33.33
2018-01-28T12:49:39.452Z,30.97
2018-01-28T12:52:21.968Z,39.07
2018-01-28T12:54:50.159Z,32.30
2018-01-28T12:57:19.044Z,30.67
2018-01-28T12:59:46.915Z,30.70
2018-01-28T13:02:15.083Z,29.80
2018-01-28T13:04:42.986Z,29.20
2018-01-28T13:07:10.916Z,29.37
2018-01-28T13:09:38.825Z,28.80
2018-01-28T13:12:06.720Z,29.23
2018-01-28T13:14:34.592Z,29.03
2018-01-28T13:17:02.549Z,31.80
2018-01-28T13:19:30.415Z,31.27
2018-01-28T13:21:58.292Z,29.83
2018-01-28T13:24:26.219Z,30.20
2018-01-28T13:26:54.149Z,31.73
2018-01-28T13:29:22.052Z,30.23
2018-01-28T13:31:50.012Z,33.03
2018-01-28T13:34:17.864Z,31.00
2018-01-28T13:36:46.752Z,32.93
2018-01-28T13:39:16.771Z,33.23
2018-01-28T13:41:44.622Z,33.00
2018-01-28T13:44:12.523Z,34.63
2018-01-28T13:46:40.454Z,35.70
2018-01-28T13:49:08.309Z,31.33
2018-01-28T13:51:36.154Z,31.53
2018-01-28T13:54:04.287Z,29.43
2018-01-28T13:56:32.245Z,32.43
2018-01-28T13:59:00.175Z,31.73
2018-01-28T14:01:28.100Z,31.93
2018-01-28T14:03:55.959Z,30.23
2018-01-28T14:06:23.803Z,32.00
2018-01-28T14:08:51.726Z,30.40
2018-01-28T14:11:19.646Z,35.10
2018-01-28T14:13:47.526Z,34.40
2018-01-28T14:16:15.443Z,34.97
2018-01-28T14:18:43.399Z,35.57
2018-01-28T14:21:11.255Z,33.23
2018-01-28T14:23:39.146Z,32.17
2018-01-28T14:26:07.017Z,33.30
2018-01-28T14:28:34.915Z,37.37
2018-01-28T14:31:03.635Z,41.87
2018-01-28T14:33:31.523Z,47.47
2018-01-28T14:35:59.394Z,47.07
2018-01-28T14:38:27.376Z,42.30
2018-01-28T14:40:55.241Z,42.50
2018-01-28T14:43:23.140Z,41.00
2018-01-28T14:45:51.096Z,36.03
2018-01-28T14:48:20.727Z,37.23
2018-01-28T14:50:49.624Z,35.50
2018-01-28T14:53:17.526Z,49.37
2018-01-28T14:55:45.390Z,53.00
2018-01-28T14:58:13.246Z,56.00
2018-01-28T15:00:41.563Z,73.53
2018-01-28T15:03:09.434Z,61.53
2018-01-28T15:05:37.270Z,50.10
2018-01-28T15:08:05.204Z,45.33
2018-01-28T15:10:33.111Z,39.10
2018-01-28T15:13:00.977Z,37.23
2018-01-28T15:15:28.904Z,37.00
2018-01-28T15:17:56.758Z,36.37
2018-01-28T15:20:24.646Z,34.57
2018-01-28T15:22:52.544Z,35.07
2018-01-28T15:25:21.334Z,35.17
2018-01-28T15:27:49.194Z,35.30
2018-01-28T15:30:17.456Z,33.83
2018-01-28T15:32:45.302Z,35.97
2018-01-28T15:35:13.151Z,35.00
2018-01-28T15:37:41.063Z,34.13
2018-01-28T15:40:09.078Z,34.17
2018-01-28T15:42:36.982Z,34.90
2018-01-28T15:45:04.986Z,34.97
2018-01-28T15:47:32.854Z,36.47
2018-01-28T15:50:00.795Z,36.27
2018-01-28T15:52:28.780Z,36.53
2018-01-28T15:54:56.667Z,36.27
2018-01-28T15:57:24.531Z,35.63
2018-01-28T15:59:52.463Z,36.50
2018-01-28T16:02:20.348Z,36.00
2018-01-28T16:04:48.249Z,37.73
2018-01-28T16:07:16.170Z,35.17
2018-01-28T16:09:44.022Z,35.17
2018-01-28T16:12:11.869Z,48.53
2018-01-28T16:14:39.786Z,37.53
2018-01-28T16:17:08.132Z,35.57
2018-01-28T16:19:35.988Z,36.50
2018-01-28T16:22:03.929Z,36.40
2018-01-28T16:24:31.770Z,37.07
2018-01-28T16:26:59.612Z,37.67
2018-01-28T16:29:27.567Z,39.97
2018-01-28T16:31:55.418Z,38.70
2018-01-28T16:34:23.270Z,41.20
2018-01-28T16:36:51.171Z,44.77
2018-01-28T16:39:19.028Z,42.00
2018-01-28T16:41:46.946Z,41.73
2018-01-28T16:44:14.930Z,42.00
2018-01-28T16:46:42.810Z,76.33
2018-01-28T16:49:11.947Z,100.97
2018-01-28T16:51:39.839Z,51.53
2018-01-28T16:54:07.694Z,45.60
2018-01-28T16:56:35.615Z,48.53
2018-01-28T16:59:03.526Z,52.03
2018-01-28T17:01:31.368Z,49.50
2018-01-28T17:03:59.252Z,56.57
2018-01-28T17:06:27.135Z,50.27
2018-01-28T17:08:54.994Z,46.60
2018-01-28T17:11:22.858Z,47.90
2018-01-28T17:13:50.871Z,46.17
2018-01-28T17:16:18.749Z,47.00
2018-01-28T17:18:46.609Z,47.00
2018-01-28T17:21:14.527Z,46.00
2018-01-28T17:23:42.557Z,47.70
2018-01-28T17:26:10.454Z,44.50
2018-01-28T17:28:38.671Z,45.73
2018-01-28T17:31:06.518Z,44.50
2018-01-28T17:33:34.378Z,41.20
2018-01-28T17:36:02.311Z,40.70
2018-01-28T17:38:30.171Z,38.87
2018-01-28T17:40:58.151Z,35.33
2018-01-28T17:43:26.167Z,38.90
2018-01-28T17:45:54.043Z,36.93
2018-01-28T17:48:21.915Z,36.50
2018-01-28T17:50:49.863Z,37.87
2018-01-28T17:53:17.706Z,36.07
2018-01-28T17:55:45.554Z,36.70
2018-01-28T17:58:13.470Z,34.93
2018-01-28T18:00:41.343Z,39.57
2018-01-28T18:03:09.199Z,35.63
2018-01-28T18:05:37.102Z,35.27
2018-01-28T18:08:04.979Z,35.33
2018-01-28T18:10:32.820Z,39.53
2018-01-28T18:13:00.718Z,41.30
2018-01-28T18:15:28.614Z,37.73
2018-01-28T18:17:56.458Z,36.23
2018-01-28T18:20:24.366Z,36.60
2018-01-28T18:22:52.227Z,38.60
2018-01-28T18:25:20.071Z,39.53
2018-01-28T18:27:47.979Z,39.27
2018-01-28T18:30:15.828Z,39.93
2018-01-28T18:32:43.679Z,40.93
2018-01-28T18:35:11.627Z,40.93
2018-01-28T18:37:39.495Z,40.13
2018-01-28T18:40:07.379Z,41.90
2018-01-28T18:42:35.315Z,39.37
2018-01-28T18:45:03.812Z,40.00
2018-01-28T18:47:31.731Z,38.73
2018-01-28T18:49:59.650Z,38.17
2018-01-28T18:52:27.513Z,38.13
2018-01-28T18:54:55.490Z,37.07
2018-01-28T18:57:23.401Z,38.77
2018-01-28T18:59:51.327Z,38.37
2018-01-28T19:02:19.183Z,38.67
2018-01-28T19:04:47.289Z,39.17
2018-01-28T19:07:15.138Z,38.80
2018-01-28T19:09:42.994Z,38.83
2018-01-28T19:12:12.251Z,38.97
2018-01-28T19:14:40.153Z,39.10
2018-01-28T19:17:08.067Z,40.50
2018-01-28T19:19:36.077Z,38.87
2018-01-28T19:22:04.682Z,41.00
2018-01-28T19:24:34.711Z,39.33
2018-01-28T19:27:03.133Z,39.10
2018-01-28T19:29:33.028Z,39.87
2018-01-28T19:32:01.811Z,37.70
2018-01-28T19:34:31.164Z,38.50
2018-01-28T19:37:00.784Z,35.87
2018-01-28T19:39:29.165Z,39.67
2018-01-28T19:41:57.090Z,50.00
2018-01-28T19:44:27.346Z,49.73
2018-01-28T19:46:56.727Z,49.70
2018-01-28T19:49:25.463Z,48.73
2018-01-28T19:51:54.704Z,48.73
2018-01-28T19:54:23.644Z,42.03
2018-01-28T19:56:51.575Z,44.30
2018-01-28T19:59:20.605Z,41.23
2018-01-28T20:01:48.790Z,40.53
2018-01-28T20:04:16.736Z,40.83
2018-01-28T20:06:45.180Z,42.83
2018-01-28T20:09:13.055Z,51.80
2018-01-28T20:11:40.969Z,49.67
2018-01-28T20:14:08.860Z,42.10
2018-01-28T20:16:36.734Z,42.70
2018-01-28T20:19:04.711Z,42.67
2018-01-28T20:21:32.591Z,41.30
2018-01-28T20:24:00.450Z,41.77
2018-01-28T20:26:28.368Z,42.13
2018-01-28T20:28:56.267Z,42.10
2018-01-28T20:31:24.123Z,42.97
2018-01-28T20:33:52.905Z,50.53
2018-01-28T20:36:20.794Z,45.10
2018-01-28T20:38:49.678Z,43.70
2018-01-28T20:41:17.614Z,43.10
2018-01-28T20:43:45.464Z,44.17
2018-01-28T20:46:13.444Z,42.57
2018-01-28T20:48:41.510Z,42.67
2018-01-28T20:51:09.347Z,41.97
2018-01-28T20:53:37.211Z,42.27
2018-01-28T20:56:05.147Z,42.60
2018-01-28T20:58:33.063Z,42.53
2018-01-28T21:01:00.963Z,45.13
2018-01-28T21:03:28.871Z,41.80
2018-01-28T21:05:56.730Z,44.30
2018-01-28T21:08:24.582Z,46.70
2018-01-28T21:10:52.566Z,48.67
2018-01-28T21:13:20.467Z,48.43
2018-01-28T21:15:48.319Z,47.40
2018-01-28T21:18:16.214Z,46.97
2018-01-28T21:20:44.168Z,46.13
2018-01-28T21:23:12.041Z,46.23
2018-01-28T21:25:39.954Z,45.77
2018-01-28T21:28:07.797Z,45.80
2018-01-28T21:30:35.656Z,43.87
2018-01-28T21:33:05.598Z,46.57
2018-01-28T21:35:33.453Z,45.27
2018-01-28T21:38:01.304Z,47.07
2018-01-28T21:40:29.417Z,46.53
2018-01-28T21:42:57.263Z,52.17
2018-01-28T21:45:25.123Z,47.37
2018-01-28T21:47:53.066Z,46.97
2018-01-28T21:50:21.051Z,45.57
2018-01-28T21:52:49.203Z,45.70
2018-01-28T21:55:17.139Z,43.43
2018-01-28T21:57:44.996Z,44.50
2018-01-28T22:00:12.863Z,49.00
2018-01-28T22:02:40.769Z,40.67
2018-01-28T22:05:08.635Z,40.50
2018-01-28T22:07:37.180Z,45.80
2018-01-28T22:10:05.365Z,41.47
2018-01-28T22:12:33.211Z,38.23
2018-01-28T22:15:01.061Z,35.43
2018-01-28T22:17:29.024Z,37.93
2018-01-28T22:19:56.907Z,36.00
2018-01-28T22:22:24.753Z,38.03
2018-01-28T22:24:52.678Z,38.40
2018-01-28T22:27:20.551Z,37.67
2018-01-28T22:29:48.414Z,38.17
2018-01-28T22:32:16.352Z,42.90
2018-01-28T22:34:44.231Z,47.57
2018-01-28T22:37:12.085Z,52.23
2018-01-28T22:39:39.995Z,55.07
2018-01-28T22:42:07.866Z,52.80
2018-01-28T22:44:35.730Z,54.40
2018-01-28T22:47:03.634Z,46.23
2018-01-28T22:49:31.479Z,40.80
2018-01-28T22:51:59.390Z,40.40
2018-01-28T22:54:27.328Z,40.23
2018-01-28T22:56:55.198Z,39.23
2018-01-28T22:59:23.038Z,39.37
2018-01-28T23:01:51.364Z,37.60
2018-01-28T23:04:19.206Z,38.70
2018-01-28T23:06:47.056Z,37.00
2018-01-28T23:09:14.960Z,36.77
2018-01-28T23:11:42.821Z,36.97
2018-01-28T23:14:10.671Z,37.27
2018-01-28T23:16:38.619Z,37.70
2018-01-28T23:19:06.454Z,38.73
2018-01-28T23:21:34.308Z,38.77
2018-01-28T23:24:02.230Z,38.17
2018-01-28T23:26:30.100Z,39.33
2018-01-28T23:28:57.950Z,37.67
2018-01-28T23:31:25.892Z,40.40
2018-01-28T23:33:53.744Z,43.33
2018-01-28T23:36:21.591Z,42.80
2018-01-28T23:38:49.704Z,43.33
2018-01-28T23:41:17.547Z,40.93
2018-01-28T23:43:45.397Z,40.67
2018-01-28T23:46:13.873Z,40.77
2018-01-28T23:48:41.724Z,40.80
2018-01-28T23:51:10.311Z,39.70
2018-01-28T23:53:38.378Z,42.53
2018-01-28T23:56:06.237Z,38.47
2018-01-28T23:58:34.111Z,37.60
